Lakeway's Hourly Summary for Friday, March 17, 2017
Hour Temp
(f)
RH
(%)
Solar Rad.
(MJ/m2)
Rainfall
(in)
Wind
(mph)
3/17/2017 12:00 AM 65 93 0 0 3.77
3/17/2017 1:00 AM 64 100 0 0 3.17
3/17/2017 2:00 AM 64 100 0 0 3.56
3/17/2017 3:00 AM 65 100 0 0 3.68
3/17/2017 4:00 AM 65 100 0 0 3.52
3/17/2017 5:00 AM 65 100 0 0 3.14
3/17/2017 6:00 AM 65 100 0 0 2.8
3/17/2017 7:00 AM 65 100 0 0 2.96
3/17/2017 8:00 AM 65 100 0 0 2.93
3/17/2017 9:00 AM 65 100 0.04 0 2.76
3/17/2017 10:00 AM 65 100 0.14 0 2.48
3/17/2017 11:00 AM 66 100 0.31 0 2.81
3/17/2017 12:00 PM 67 92 0.51 0 2.42
3/17/2017 1:00 PM 69 80 0.81 0 2.96
3/17/2017 2:00 PM 72 67 1.38 0 2.7
3/17/2017 3:00 PM 75 60 1.61 0 3.67
3/17/2017 4:00 PM 77 54 2.04 0 3.89
3/17/2017 5:00 PM 78 50 1.94 0 3.69
3/17/2017 6:00 PM 79 48 1.45 0 3.04
3/17/2017 7:00 PM 78 50 0.7 0 3.48
3/17/2017 8:00 PM 75 54 0.09 0 2.51
3/17/2017 9:00 PM 71 68 0 0 1.59
3/17/2017 10:00 PM 69 79 0 0 2.44
3/17/2017 11:00 PM 68 89 0 0 3.87
Data Summary 69 82 11.02 0.00 3.08